Westbrook Park, Pennsylvania
Current Conditions -  °F | °C
As of 7:54 PM on Friday 21 Nov 2014 (Local Time) from KPHL Reporting Station
Clear Clear  
Wind Chill: 24°   Ceiling: Unl
Heat Index: 33°   Visibility: 10mi
Dew Point:   Wind: 12mph
Humidity: 37%   Direction: 280°W
Pressure: 30.53"   Gusts: NA
Location:  39.9228°N, 75.2984°W
Report Text: KPHL 220054Z 28010KT 10SM CLR 01/M13 A3053 RMK AO2 SLP338 T00061128 $
Loading
Personal Weather Stations






























Interactive Weather Map New forecast layout! Learn more

10-Day Weather Forecast

Advertisements
Track Severe Weather on mobile